sensor_id;sensor_type;location;lat;lon;timestamp;P1;durP1;ratioP1;P2;durP2;ratioP2
46875;SDS011;32866;50.160;14.768;2023-02-26T00:00:37;10.45;;;5.30;;
46875;SDS011;32866;50.160;14.768;2023-02-26T00:03:02;8.68;;;4.65;;
46875;SDS011;32866;50.160;14.768;2023-02-26T00:05:27;11.52;;;6.57;;
46875;SDS011;32866;50.160;14.768;2023-02-26T00:07:53;10.35;;;4.80;;
46875;SDS011;32866;50.160;14.768;2023-02-26T00:10:18;11.50;;;6.88;;
46875;SDS011;32866;50.160;14.768;2023-02-26T00:12:44;8.25;;;5.22;;
46875;SDS011;32866;50.160;14.768;2023-02-26T00:15:10;10.65;;;5.78;;
46875;SDS011;32866;50.160;14.768;2023-02-26T00:20:10;7.37;;;5.60;;
46875;SDS011;32866;50.160;14.768;2023-02-26T00:22:36;9.05;;;6.13;;
46875;SDS011;32866;50.160;14.768;2023-02-26T00:25:05;9.23;;;6.10;;
46875;SDS011;32866;50.160;14.768;2023-02-26T00:27:30;10.60;;;6.40;;
46875;SDS011;32866;50.160;14.768;2023-02-26T00:29:56;8.02;;;6.28;;
46875;SDS011;32866;50.160;14.768;2023-02-26T00:32:21;10.40;;;6.40;;
46875;SDS011;32866;50.160;14.768;2023-02-26T00:34:47;8.57;;;6.32;;
46875;SDS011;32866;50.160;14.768;2023-02-26T00:42:19;7.63;;;5.63;;
46875;SDS011;32866;50.160;14.768;2023-02-26T00:44:44;8.15;;;5.85;;
46875;SDS011;32866;50.160;14.768;2023-02-26T00:47:16;5.90;;;4.88;;
46875;SDS011;32866;50.160;14.768;2023-02-26T00:49:54;6.23;;;4.17;;
46875;SDS011;32866;50.160;14.768;2023-02-26T00:55:22;7.80;;;4.07;;
46875;SDS011;32866;50.160;14.768;2023-02-26T00:57:47;5.05;;;4.03;;
46875;SDS011;32866;50.160;14.768;2023-02-26T01:00:13;4.65;;;3.60;;
46875;SDS011;32866;50.160;14.768;2023-02-26T01:02:39;6.50;;;3.77;;
46875;SDS011;32866;50.160;14.768;2023-02-26T01:05:06;4.53;;;3.37;;
46875;SDS011;32866;50.160;14.768;2023-02-26T01:07:36;6.27;;;3.50;;
46875;SDS011;32866;50.160;14.768;2023-02-26T01:10:06;6.07;;;3.77;;
46875;SDS011;32866;50.160;14.768;2023-02-26T01:12:32;7.40;;;3.40;;
46875;SDS011;32866;50.160;14.768;2023-02-26T01:14:57;4.93;;;3.40;;
46875;SDS011;32866;50.160;14.768;2023-02-26T01:17:33;4.65;;;3.47;;
46875;SDS011;32866;50.160;14.768;2023-02-26T01:20:08;5.07;;;3.70;;
46875;SDS011;32866;50.160;14.768;2023-02-26T01:22:39;4.83;;;3.63;;
46875;SDS011;32866;50.160;14.768;2023-02-26T01:25:11;7.17;;;3.40;;
46875;SDS011;32866;50.160;14.768;2023-02-26T01:27:40;5.93;;;4.13;;
46875;SDS011;32866;50.160;14.768;2023-02-26T01:30:06;5.15;;;3.45;;
46875;SDS011;32866;50.160;14.768;2023-02-26T01:32:40;4.27;;;3.57;;
46875;SDS011;32866;50.160;14.768;2023-02-26T01:46:17;6.23;;;3.37;;
46875;SDS011;32866;50.160;14.768;2023-02-26T01:48:54;7.00;;;3.60;;
46875;SDS011;32866;50.160;14.768;2023-02-26T01:51:41;2.90;;;2.60;;
46875;SDS011;32866;50.160;14.768;2023-02-26T01:54:16;4.73;;;2.93;;
46875;SDS011;32866;50.160;14.768;2023-02-26T01:56:44;4.63;;;3.07;;
46875;SDS011;32866;50.160;14.768;2023-02-26T01:59:14;3.93;;;3.00;;
46875;SDS011;32866;50.160;14.768;2023-02-26T02:01:44;4.83;;;3.20;;
46875;SDS011;32866;50.160;14.768;2023-02-26T02:04:11;6.18;;;3.10;;
46875;SDS011;32866;50.160;14.768;2023-02-26T02:06:38;4.80;;;2.90;;
46875;SDS011;32866;50.160;14.768;2023-02-26T02:09:04;4.00;;;3.35;;
46875;SDS011;32866;50.160;14.768;2023-02-26T02:11:32;5.10;;;2.90;;
46875;SDS011;32866;50.160;14.768;2023-02-26T02:14:17;4.40;;;3.17;;
46875;SDS011;32866;50.160;14.768;2023-02-26T02:17:01;4.70;;;3.53;;
46875;SDS011;32866;50.160;14.768;2023-02-26T02:25:34;5.10;;;3.23;;
46875;SDS011;32866;50.160;14.768;2023-02-26T02:33:52;5.00;;;2.80;;
46875;SDS011;32866;50.160;14.768;2023-02-26T02:36:32;5.03;;;3.27;;
46875;SDS011;32866;50.160;14.768;2023-02-26T02:39:23;4.83;;;3.43;;
46875;SDS011;32866;50.160;14.768;2023-02-26T02:42:07;5.87;;;3.00;;
46875;SDS011;32866;50.160;14.768;2023-02-26T02:44:45;6.07;;;3.93;;
46875;SDS011;32866;50.160;14.768;2023-02-26T02:47:15;7.47;;;4.30;;
46875;SDS011;32866;50.160;14.768;2023-02-26T02:49:46;5.03;;;3.60;;
46875;SDS011;32866;50.160;14.768;2023-02-26T02:52:18;4.03;;;2.87;;
46875;SDS011;32866;50.160;14.768;2023-02-26T02:54:55;8.70;;;2.97;;
46875;SDS011;32866;50.160;14.768;2023-02-26T02:57:59;5.32;;;3.28;;
46875;SDS011;32866;50.160;14.768;2023-02-26T03:00:28;4.70;;;3.70;;
46875;SDS011;32866;50.160;14.768;2023-02-26T03:03:12;5.30;;;3.17;;
46875;SDS011;32866;50.160;14.768;2023-02-26T03:05:52;4.80;;;3.07;;
46875;SDS011;32866;50.160;14.768;2023-02-26T03:08:20;4.60;;;3.35;;
46875;SDS011;32866;50.160;14.768;2023-02-26T03:10:48;3.80;;;2.93;;
46875;SDS011;32866;50.160;14.768;2023-02-26T03:13:14;5.32;;;3.35;;
46875;SDS011;32866;50.160;14.768;2023-02-26T03:21:03;3.07;;;2.77;;
46875;SDS011;32866;50.160;14.768;2023-02-26T03:26:38;3.80;;;3.35;;
46875;SDS011;32866;50.160;14.768;2023-02-26T03:29:09;5.13;;;2.83;;
46875;SDS011;32866;50.160;14.768;2023-02-26T03:32:01;4.87;;;3.07;;
46875;SDS011;32866;50.160;14.768;2023-02-26T03:34:34;3.53;;;2.73;;
46875;SDS011;32866;50.160;14.768;2023-02-26T03:37:07;4.43;;;3.10;;
46875;SDS011;32866;50.160;14.768;2023-02-26T03:39:51;3.83;;;3.13;;
46875;SDS011;32866;50.160;14.768;2023-02-26T03:42:21;6.40;;;3.13;;
46875;SDS011;32866;50.160;14.768;2023-02-26T03:44:58;3.77;;;3.27;;
46875;SDS011;32866;50.160;14.768;2023-02-26T03:47:26;4.00;;;3.00;;
46875;SDS011;32866;50.160;14.768;2023-02-26T03:50:12;5.30;;;3.67;;
46875;SDS011;32866;50.160;14.768;2023-02-26T03:52:42;5.77;;;3.47;;
46875;SDS011;32866;50.160;14.768;2023-02-26T03:55:12;6.23;;;3.27;;
46875;SDS011;32866;50.160;14.768;2023-02-26T03:57:41;3.73;;;3.33;;
46875;SDS011;32866;50.160;14.768;2023-02-26T04:00:07;5.17;;;3.17;;
46875;SDS011;32866;50.160;14.768;2023-02-26T04:02:47;3.73;;;3.37;;
46875;SDS011;32866;50.160;14.768;2023-02-26T04:05:25;4.20;;;3.13;;
46875;SDS011;32866;50.160;14.768;2023-02-26T04:07:54;3.60;;;2.83;;
46875;SDS011;32866;50.160;14.768;2023-02-26T04:10:24;4.50;;;3.00;;
46875;SDS011;32866;50.160;14.768;2023-02-26T04:12:59;4.43;;;3.07;;
46875;SDS011;32866;50.160;14.768;2023-02-26T04:15:26;4.10;;;2.97;;
46875;SDS011;32866;50.160;14.768;2023-02-26T04:17:51;3.95;;;2.90;;
46875;SDS011;32866;50.160;14.768;2023-02-26T04:20:17;6.20;;;3.17;;
46875;SDS011;32866;50.160;14.768;2023-02-26T04:22:42;3.90;;;3.00;;
46875;SDS011;32866;50.160;14.768;2023-02-26T04:25:07;3.83;;;3.13;;
46875;SDS011;32866;50.160;14.768;2023-02-26T04:29:59;3.97;;;2.60;;
46875;SDS011;32866;50.160;14.768;2023-02-26T04:32:24;2.88;;;2.55;;
46875;SDS011;32866;50.160;14.768;2023-02-26T04:34:49;3.17;;;2.63;;
46875;SDS011;32866;50.160;14.768;2023-02-26T04:37:15;3.67;;;2.72;;
46875;SDS011;32866;50.160;14.768;2023-02-26T04:39:40;4.38;;;3.15;;
46875;SDS011;32866;50.160;14.768;2023-02-26T04:42:05;5.60;;;3.00;;
46875;SDS011;32866;50.160;14.768;2023-02-26T04:44:31;3.10;;;2.63;;
46875;SDS011;32866;50.160;14.768;2023-02-26T04:46:57;5.55;;;2.30;;
46875;SDS011;32866;50.160;14.768;2023-02-26T04:49:22;3.00;;;2.45;;
46875;SDS011;32866;50.160;14.768;2023-02-26T04:51:48;4.28;;;3.20;;
46875;SDS011;32866;50.160;14.768;2023-02-26T04:54:13;4.88;;;2.75;;
46875;SDS011;32866;50.160;14.768;2023-02-26T04:56:39;6.68;;;3.60;;
46875;SDS011;32866;50.160;14.768;2023-02-26T04:59:04;3.45;;;2.90;;
46875;SDS011;32866;50.160;14.768;2023-02-26T05:01:30;4.65;;;2.50;;
46875;SDS011;32866;50.160;14.768;2023-02-26T05:03:56;4.45;;;2.90;;
46875;SDS011;32866;50.160;14.768;2023-02-26T05:06:21;2.92;;;2.47;;
46875;SDS011;32866;50.160;14.768;2023-02-26T05:08:47;4.80;;;2.63;;
46875;SDS011;32866;50.160;14.768;2023-02-26T05:11:12;3.58;;;2.65;;
46875;SDS011;32866;50.160;14.768;2023-02-26T05:13:38;3.10;;;2.22;;
46875;SDS011;32866;50.160;14.768;2023-02-26T05:16:04;3.13;;;2.55;;
46875;SDS011;32866;50.160;14.768;2023-02-26T05:18:30;2.67;;;2.20;;
46875;SDS011;32866;50.160;14.768;2023-02-26T05:20:56;2.87;;;2.00;;
46875;SDS011;32866;50.160;14.768;2023-02-26T05:23:22;2.78;;;2.47;;
46875;SDS011;32866;50.160;14.768;2023-02-26T05:25:47;2.97;;;2.28;;
46875;SDS011;32866;50.160;14.768;2023-02-26T05:28:12;2.50;;;2.00;;
46875;SDS011;32866;50.160;14.768;2023-02-26T05:30:38;2.08;;;1.88;;
46875;SDS011;32866;50.160;14.768;2023-02-26T05:33:04;4.20;;;2.47;;
46875;SDS011;32866;50.160;14.768;2023-02-26T05:35:30;2.95;;;1.90;;
46875;SDS011;32866;50.160;14.768;2023-02-26T05:37:55;2.42;;;1.73;;
46875;SDS011;32866;50.160;14.768;2023-02-26T05:40:21;2.53;;;1.88;;
46875;SDS011;32866;50.160;14.768;2023-02-26T05:42:47;2.10;;;1.90;;
46875;SDS011;32866;50.160;14.768;2023-02-26T05:45:12;3.30;;;2.10;;
46875;SDS011;32866;50.160;14.768;2023-02-26T05:47:37;2.30;;;1.77;;
46875;SDS011;32866;50.160;14.768;2023-02-26T05:50:03;3.63;;;2.40;;
46875;SDS011;32866;50.160;14.768;2023-02-26T05:52:30;7.77;;;2.50;;
46875;SDS011;32866;50.160;14.768;2023-02-26T05:54:55;4.43;;;1.77;;
46875;SDS011;32866;50.160;14.768;2023-02-26T05:57:21;4.78;;;2.30;;
46875;SDS011;32866;50.160;14.768;2023-02-26T05:59:46;5.10;;;2.17;;
46875;SDS011;32866;50.160;14.768;2023-02-26T06:02:12;3.45;;;2.83;;
46875;SDS011;32866;50.160;14.768;2023-02-26T06:04:37;3.90;;;2.30;;
46875;SDS011;32866;50.160;14.768;2023-02-26T06:07:03;3.15;;;1.90;;
46875;SDS011;32866;50.160;14.768;2023-02-26T06:09:28;3.03;;;1.75;;
46875;SDS011;32866;50.160;14.768;2023-02-26T06:11:54;4.53;;;1.95;;
46875;SDS011;32866;50.160;14.768;2023-02-26T06:14:19;4.18;;;1.90;;
46875;SDS011;32866;50.160;14.768;2023-02-26T06:16:44;3.42;;;1.90;;
46875;SDS011;32866;50.160;14.768;2023-02-26T06:19:10;2.22;;;2.03;;
46875;SDS011;32866;50.160;14.768;2023-02-26T06:21:35;3.45;;;2.05;;
46875;SDS011;32866;50.160;14.768;2023-02-26T06:24:00;2.42;;;2.05;;
46875;SDS011;32866;50.160;14.768;2023-02-26T06:26:26;6.03;;;3.70;;
46875;SDS011;32866;50.160;14.768;2023-02-26T06:28:51;8.35;;;2.78;;
46875;SDS011;32866;50.160;14.768;2023-02-26T06:31:16;3.20;;;2.72;;
46875;SDS011;32866;50.160;14.768;2023-02-26T06:33:42;5.28;;;2.78;;
46875;SDS011;32866;50.160;14.768;2023-02-26T06:36:07;2.47;;;1.80;;
46875;SDS011;32866;50.160;14.768;2023-02-26T06:38:33;4.15;;;2.35;;
46875;SDS011;32866;50.160;14.768;2023-02-26T06:40:58;1.90;;;1.45;;
46875;SDS011;32866;50.160;14.768;2023-02-26T06:43:23;1.50;;;1.40;;
46875;SDS011;32866;50.160;14.768;2023-02-26T06:45:49;1.77;;;1.33;;
46875;SDS011;32866;50.160;14.768;2023-02-26T06:48:15;1.73;;;1.50;;
46875;SDS011;32866;50.160;14.768;2023-02-26T06:50:40;1.50;;;1.33;;
46875;SDS011;32866;50.160;14.768;2023-02-26T06:53:05;2.17;;;1.98;;
46875;SDS011;32866;50.160;14.768;2023-02-26T06:55:31;6.75;;;2.10;;
46875;SDS011;32866;50.160;14.768;2023-02-26T06:57:57;2.78;;;2.05;;
46875;SDS011;32866;50.160;14.768;2023-02-26T07:00:23;5.05;;;3.53;;
46875;SDS011;32866;50.160;14.768;2023-02-26T07:02:49;6.60;;;2.57;;
46875;SDS011;32866;50.160;14.768;2023-02-26T07:05:15;3.15;;;2.15;;
46875;SDS011;32866;50.160;14.768;2023-02-26T07:07:41;3.60;;;2.28;;
46875;SDS011;32866;50.160;14.768;2023-02-26T07:10:07;4.00;;;2.60;;
46875;SDS011;32866;50.160;14.768;2023-02-26T07:12:33;4.17;;;2.20;;
46875;SDS011;32866;50.160;14.768;2023-02-26T07:14:59;9.35;;;2.55;;
46875;SDS011;32866;50.160;14.768;2023-02-26T07:17:24;2.53;;;2.10;;
46875;SDS011;32866;50.160;14.768;2023-02-26T07:19:50;4.07;;;1.88;;
46875;SDS011;32866;50.160;14.768;2023-02-26T07:22:17;7.13;;;2.40;;
46875;SDS011;32866;50.160;14.768;2023-02-26T07:24:44;2.17;;;1.87;;
46875;SDS011;32866;50.160;14.768;2023-02-26T07:27:09;4.40;;;1.85;;
46875;SDS011;32866;50.160;14.768;2023-02-26T07:29:36;4.97;;;1.67;;
46875;SDS011;32866;50.160;14.768;2023-02-26T07:32:02;2.70;;;1.58;;
46875;SDS011;32866;50.160;14.768;2023-02-26T07:34:28;2.25;;;1.35;;
46875;SDS011;32866;50.160;14.768;2023-02-26T07:36:53;2.30;;;1.40;;
46875;SDS011;32866;50.160;14.768;2023-02-26T07:39:19;2.28;;;1.45;;
46875;SDS011;32866;50.160;14.768;2023-02-26T07:41:44;7.05;;;2.15;;
46875;SDS011;32866;50.160;14.768;2023-02-26T07:44:10;4.45;;;1.80;;
46875;SDS011;32866;50.160;14.768;2023-02-26T07:46:35;1.95;;;1.35;;
46875;SDS011;32866;50.160;14.768;2023-02-26T07:49:00;3.05;;;1.77;;
46875;SDS011;32866;50.160;14.768;2023-02-26T07:51:26;3.28;;;2.05;;
46875;SDS011;32866;50.160;14.768;2023-02-26T07:53:51;2.53;;;2.00;;
46875;SDS011;32866;50.160;14.768;2023-02-26T07:56:17;2.13;;;1.85;;
46875;SDS011;32866;50.160;14.768;2023-02-26T07:58:42;2.40;;;1.70;;
46875;SDS011;32866;50.160;14.768;2023-02-26T08:01:07;3.42;;;2.00;;
46875;SDS011;32866;50.160;14.768;2023-02-26T08:03:33;2.22;;;1.80;;
46875;SDS011;32866;50.160;14.768;2023-02-26T08:05:58;3.67;;;2.20;;
46875;SDS011;32866;50.160;14.768;2023-02-26T08:08:24;3.17;;;1.60;;
46875;SDS011;32866;50.160;14.768;2023-02-26T08:10:50;1.73;;;1.60;;
46875;SDS011;32866;50.160;14.768;2023-02-26T08:13:16;2.35;;;1.90;;
46875;SDS011;32866;50.160;14.768;2023-02-26T08:15:41;4.97;;;3.70;;
46875;SDS011;32866;50.160;14.768;2023-02-26T08:20:33;2.47;;;2.27;;
46875;SDS011;32866;50.160;14.768;2023-02-26T08:22:58;1.88;;;1.77;;
46875;SDS011;32866;50.160;14.768;2023-02-26T08:25:23;6.20;;;2.58;;
46875;SDS011;32866;50.160;14.768;2023-02-26T08:27:49;4.47;;;1.77;;
46875;SDS011;32866;50.160;14.768;2023-02-26T08:30:14;4.00;;;1.80;;
46875;SDS011;32866;50.160;14.768;2023-02-26T08:32:40;2.10;;;1.88;;
46875;SDS011;32866;50.160;14.768;2023-02-26T08:37:31;3.63;;;1.93;;
46875;SDS011;32866;50.160;14.768;2023-02-26T08:39:57;3.45;;;1.98;;
46875;SDS011;32866;50.160;14.768;2023-02-26T08:42:22;5.95;;;2.13;;
46875;SDS011;32866;50.160;14.768;2023-02-26T08:44:48;3.38;;;2.25;;
46875;SDS011;32866;50.160;14.768;2023-02-26T08:47:13;3.45;;;2.45;;
46875;SDS011;32866;50.160;14.768;2023-02-26T08:49:39;7.03;;;2.95;;
46875;SDS011;32866;50.160;14.768;2023-02-26T08:52:04;2.05;;;1.80;;
46875;SDS011;32866;50.160;14.768;2023-02-26T08:54:30;1.50;;;1.40;;
46875;SDS011;32866;50.160;14.768;2023-02-26T08:56:56;3.15;;;2.17;;
46875;SDS011;32866;50.160;14.768;2023-02-26T08:59:22;3.63;;;2.38;;
46875;SDS011;32866;50.160;14.768;2023-02-26T09:01:50;2.23;;;1.40;;
46875;SDS011;32866;50.160;14.768;2023-02-26T09:04:16;6.32;;;2.03;;
46875;SDS011;32866;50.160;14.768;2023-02-26T09:06:42;3.35;;;2.10;;
46875;SDS011;32866;50.160;14.768;2023-02-26T09:09:07;6.53;;;2.42;;
46875;SDS011;32866;50.160;14.768;2023-02-26T09:11:33;1.58;;;1.00;;
46875;SDS011;32866;50.160;14.768;2023-02-26T09:14:00;2.57;;;1.03;;
46875;SDS011;32866;50.160;14.768;2023-02-26T09:16:27;2.97;;;1.20;;
46875;SDS011;32866;50.160;14.768;2023-02-26T09:18:53;1.55;;;1.25;;
46875;SDS011;32866;50.160;14.768;2023-02-26T09:21:18;3.60;;;1.63;;
46875;SDS011;32866;50.160;14.768;2023-02-26T09:23:44;1.77;;;1.48;;
46875;SDS011;32866;50.160;14.768;2023-02-26T09:26:09;3.85;;;1.67;;
46875;SDS011;32866;50.160;14.768;2023-02-26T09:28:34;3.35;;;1.38;;
46875;SDS011;32866;50.160;14.768;2023-02-26T09:31:00;2.17;;;1.38;;
46875;SDS011;32866;50.160;14.768;2023-02-26T09:33:25;1.20;;;1.10;;
46875;SDS011;32866;50.160;14.768;2023-02-26T09:35:51;5.22;;;1.80;;
46875;SDS011;32866;50.160;14.768;2023-02-26T09:38:17;2.60;;;1.17;;
46875;SDS011;32866;50.160;14.768;2023-02-26T09:40:53;2.97;;;1.60;;
46875;SDS011;32866;50.160;14.768;2023-02-26T09:47:04;3.53;;;2.23;;
46875;SDS011;32866;50.160;14.768;2023-02-26T09:49:36;4.67;;;2.97;;
46875;SDS011;32866;50.160;14.768;2023-02-26T09:55:02;4.30;;;1.77;;
46875;SDS011;32866;50.160;14.768;2023-02-26T09:57:36;2.47;;;1.53;;
46875;SDS011;32866;50.160;14.768;2023-02-26T10:00:31;3.27;;;1.40;;
46875;SDS011;32866;50.160;14.768;2023-02-26T10:08:44;3.57;;;1.83;;
46875;SDS011;32866;50.160;14.768;2023-02-26T10:11:28;3.73;;;2.20;;
46875;SDS011;32866;50.160;14.768;2023-02-26T10:14:05;1.10;;;1.00;;
46875;SDS011;32866;50.160;14.768;2023-02-26T10:16:39;1.50;;;1.15;;
46875;SDS011;32866;50.160;14.768;2023-02-26T10:19:07;1.40;;;1.20;;
46875;SDS011;32866;50.160;14.768;2023-02-26T10:21:39;2.17;;;1.40;;
46875;SDS011;32866;50.160;14.768;2023-02-26T10:24:28;1.60;;;1.37;;
46875;SDS011;32866;50.160;14.768;2023-02-26T10:27:04;1.97;;;1.47;;
46875;SDS011;32866;50.160;14.768;2023-02-26T10:29:41;3.87;;;1.93;;
46875;SDS011;32866;50.160;14.768;2023-02-26T10:32:23;2.50;;;1.77;;
46875;SDS011;32866;50.160;14.768;2023-02-26T10:34:56;5.53;;;1.30;;
46875;SDS011;32866;50.160;14.768;2023-02-26T10:37:37;1.83;;;1.27;;
46875;SDS011;32866;50.160;14.768;2023-02-26T10:51:11;2.43;;;1.40;;
46875;SDS011;32866;50.160;14.768;2023-02-26T10:53:41;3.13;;;1.40;;
46875;SDS011;32866;50.160;14.768;2023-02-26T10:56:12;2.97;;;1.20;;
46875;SDS011;32866;50.160;14.768;2023-02-26T10:58:41;2.00;;;1.40;;
46875;SDS011;32866;50.160;14.768;2023-02-26T11:01:12;1.75;;;1.02;;
46875;SDS011;32866;50.160;14.768;2023-02-26T11:03:42;2.83;;;1.67;;
46875;SDS011;32866;50.160;14.768;2023-02-26T11:06:17;3.17;;;1.63;;
46875;SDS011;32866;50.160;14.768;2023-02-26T11:08:48;4.47;;;2.33;;
46875;SDS011;32866;50.160;14.768;2023-02-26T11:11:39;10.23;;;2.50;;
46875;SDS011;32866;50.160;14.768;2023-02-26T11:14:06;1.40;;;1.00;;
46875;SDS011;32866;50.160;14.768;2023-02-26T11:16:32;2.47;;;1.20;;
46875;SDS011;32866;50.160;14.768;2023-02-26T11:21:29;2.13;;;1.30;;
46875;SDS011;32866;50.160;14.768;2023-02-26T11:24:22;1.60;;;1.27;;
46875;SDS011;32866;50.160;14.768;2023-02-26T11:26:52;2.43;;;1.83;;
46875;SDS011;32866;50.160;14.768;2023-02-26T11:29:19;3.57;;;2.53;;
46875;SDS011;32866;50.160;14.768;2023-02-26T11:31:49;1.53;;;1.33;;
46875;SDS011;32866;50.160;14.768;2023-02-26T11:34:15;3.00;;;1.50;;
46875;SDS011;32866;50.160;14.768;2023-02-26T11:36:47;1.90;;;1.60;;
46875;SDS011;32866;50.160;14.768;2023-02-26T11:39:32;2.63;;;1.60;;
46875;SDS011;32866;50.160;14.768;2023-02-26T11:42:00;1.33;;;1.20;;
46875;SDS011;32866;50.160;14.768;2023-02-26T11:47:02;2.53;;;1.37;;
46875;SDS011;32866;50.160;14.768;2023-02-26T11:49:39;1.10;;;1.00;;
46875;SDS011;32866;50.160;14.768;2023-02-26T11:54:36;1.40;;;1.30;;
46875;SDS011;32866;50.160;14.768;2023-02-26T11:57:06;3.30;;;1.10;;
46875;SDS011;32866;50.160;14.768;2023-02-26T11:59:50;2.10;;;1.25;;
46875;SDS011;32866;50.160;14.768;2023-02-26T12:02:18;2.50;;;1.63;;
46875;SDS011;32866;50.160;14.768;2023-02-26T12:04:47;5.07;;;2.13;;
46875;SDS011;32866;50.160;14.768;2023-02-26T12:07:16;2.80;;;2.17;;
46875;SDS011;32866;50.160;14.768;2023-02-26T12:15:01;1.47;;;1.37;;
46875;SDS011;32866;50.160;14.768;2023-02-26T12:17:43;2.72;;;1.65;;
46875;SDS011;32866;50.160;14.768;2023-02-26T12:20:16;3.60;;;1.83;;
46875;SDS011;32866;50.160;14.768;2023-02-26T12:25:34;1.57;;;1.33;;
46875;SDS011;32866;50.160;14.768;2023-02-26T12:28:41;0.87;;;0.80;;
46875;SDS011;32866;50.160;14.768;2023-02-26T12:37:27;1.53;;;1.30;;
46875;SDS011;32866;50.160;14.768;2023-02-26T12:42:47;2.27;;;1.43;;
46875;SDS011;32866;50.160;14.768;2023-02-26T12:51:04;3.10;;;2.00;;
46875;SDS011;32866;50.160;14.768;2023-02-26T12:53:53;4.10;;;2.07;;
46875;SDS011;32866;50.160;14.768;2023-02-26T13:01:47;2.80;;;2.17;;
46875;SDS011;32866;50.160;14.768;2023-02-26T13:04:29;1.60;;;1.40;;
46875;SDS011;32866;50.160;14.768;2023-02-26T13:07:33;2.37;;;1.37;;
46875;SDS011;32866;50.160;14.768;2023-02-26T13:15:48;3.27;;;1.50;;
46875;SDS011;32866;50.160;14.768;2023-02-26T13:21:04;2.45;;;1.42;;
46875;SDS011;32866;50.160;14.768;2023-02-26T13:23:38;2.40;;;1.00;;
46875;SDS011;32866;50.160;14.768;2023-02-26T13:26:09;1.33;;;1.00;;
46875;SDS011;32866;50.160;14.768;2023-02-26T13:33:49;1.60;;;1.20;;
46875;SDS011;32866;50.160;14.768;2023-02-26T13:36:18;3.53;;;1.43;;
46875;SDS011;32866;50.160;14.768;2023-02-26T13:41:57;3.53;;;1.20;;
46875;SDS011;32866;50.160;14.768;2023-02-26T13:44:37;4.03;;;1.90;;
46875;SDS011;32866;50.160;14.768;2023-02-26T13:48:03;1.77;;;1.40;;
46875;SDS011;32866;50.160;14.768;2023-02-26T13:53:03;7.83;;;4.30;;
46875;SDS011;32866;50.160;14.768;2023-02-26T13:55:51;4.40;;;2.27;;
46875;SDS011;32866;50.160;14.768;2023-02-26T14:00:46;6.93;;;2.57;;
46875;SDS011;32866;50.160;14.768;2023-02-26T14:05:52;1.87;;;1.60;;
46875;SDS011;32866;50.160;14.768;2023-02-26T14:08:27;2.20;;;1.10;;
46875;SDS011;32866;50.160;14.768;2023-02-26T14:13:41;1.10;;;1.00;;
46875;SDS011;32866;50.160;14.768;2023-02-26T14:16:27;2.30;;;1.33;;
46875;SDS011;32866;50.160;14.768;2023-02-26T14:18:56;2.83;;;1.13;;
46875;SDS011;32866;50.160;14.768;2023-02-26T14:24:18;2.67;;;1.60;;
46875;SDS011;32866;50.160;14.768;2023-02-26T14:26:48;2.50;;;1.13;;
46875;SDS011;32866;50.160;14.768;2023-02-26T14:29:36;2.77;;;1.00;;
46875;SDS011;32866;50.160;14.768;2023-02-26T14:34:36;3.50;;;1.70;;
46875;SDS011;32866;50.160;14.768;2023-02-26T14:37:24;2.53;;;1.33;;
46875;SDS011;32866;50.160;14.768;2023-02-26T14:39:55;1.33;;;0.90;;
46875;SDS011;32866;50.160;14.768;2023-02-26T14:42:33;3.17;;;1.30;;
46875;SDS011;32866;50.160;14.768;2023-02-26T14:45:07;4.95;;;1.10;;
46875;SDS011;32866;50.160;14.768;2023-02-26T14:47:45;2.63;;;1.30;;
46875;SDS011;32866;50.160;14.768;2023-02-26T14:50:21;2.47;;;1.30;;
46875;SDS011;32866;50.160;14.768;2023-02-26T14:55:55;6.00;;;3.20;;
46875;SDS011;32866;50.160;14.768;2023-02-26T15:01:44;5.07;;;1.30;;
46875;SDS011;32866;50.160;14.768;2023-02-26T15:12:27;2.83;;;1.30;;
46875;SDS011;32866;50.160;14.768;2023-02-26T15:15:15;4.73;;;1.60;;
46875;SDS011;32866;50.160;14.768;2023-02-26T15:23:32;2.10;;;1.60;;
46875;SDS011;32866;50.160;14.768;2023-02-26T15:26:17;1.47;;;1.33;;
46875;SDS011;32866;50.160;14.768;2023-02-26T15:28:47;3.67;;;1.83;;
46875;SDS011;32866;50.160;14.768;2023-02-26T15:31:13;2.27;;;1.30;;
46875;SDS011;32866;50.160;14.768;2023-02-26T15:33:42;2.90;;;1.87;;
46875;SDS011;32866;50.160;14.768;2023-02-26T15:36:12;3.50;;;1.20;;
46875;SDS011;32866;50.160;14.768;2023-02-26T15:38:42;6.57;;;1.50;;
46875;SDS011;32866;50.160;14.768;2023-02-26T15:41:10;2.00;;;1.27;;
46875;SDS011;32866;50.160;14.768;2023-02-26T15:43:36;2.10;;;1.30;;
46875;SDS011;32866;50.160;14.768;2023-02-26T15:46:04;5.07;;;1.77;;
46875;SDS011;32866;50.160;14.768;2023-02-26T15:48:32;6.03;;;2.00;;
46875;SDS011;32866;50.160;14.768;2023-02-26T15:51:01;3.77;;;1.90;;
46875;SDS011;32866;50.160;14.768;2023-02-26T15:53:35;4.77;;;2.63;;
46875;SDS011;32866;50.160;14.768;2023-02-26T15:56:05;2.00;;;1.73;;
46875;SDS011;32866;50.160;14.768;2023-02-26T15:58:41;2.87;;;1.70;;
46875;SDS011;32866;50.160;14.768;2023-02-26T16:01:13;2.97;;;1.70;;
46875;SDS011;32866;50.160;14.768;2023-02-26T16:03:45;2.93;;;1.93;;
46875;SDS011;32866;50.160;14.768;2023-02-26T16:06:15;2.43;;;2.23;;
46875;SDS011;32866;50.160;14.768;2023-02-26T16:08:43;3.23;;;2.37;;
46875;SDS011;32866;50.160;14.768;2023-02-26T16:11:08;4.78;;;2.17;;
46875;SDS011;32866;50.160;14.768;2023-02-26T16:13:35;3.07;;;1.80;;
46875;SDS011;32866;50.160;14.768;2023-02-26T16:16:04;6.63;;;2.07;;
46875;SDS011;32866;50.160;14.768;2023-02-26T16:18:35;3.33;;;1.53;;
46875;SDS011;32866;50.160;14.768;2023-02-26T16:21:04;2.53;;;1.67;;
46875;SDS011;32866;50.160;14.768;2023-02-26T16:23:46;2.33;;;1.63;;
46875;SDS011;32866;50.160;14.768;2023-02-26T16:26:20;2.00;;;1.37;;
46875;SDS011;32866;50.160;14.768;2023-02-26T16:28:49;6.33;;;1.87;;
46875;SDS011;32866;50.160;14.768;2023-02-26T16:31:21;2.13;;;1.63;;
46875;SDS011;32866;50.160;14.768;2023-02-26T16:33:53;5.47;;;1.70;;
46875;SDS011;32866;50.160;14.768;2023-02-26T16:36:22;3.83;;;1.67;;
46875;SDS011;32866;50.160;14.768;2023-02-26T16:41:41;4.57;;;2.40;;
46875;SDS011;32866;50.160;14.768;2023-02-26T16:47:28;3.30;;;1.77;;
46875;SDS011;32866;50.160;14.768;2023-02-26T16:49:55;3.43;;;2.43;;
46875;SDS011;32866;50.160;14.768;2023-02-26T16:52:21;2.42;;;1.60;;
46875;SDS011;32866;50.160;14.768;2023-02-26T16:55:01;4.70;;;2.13;;
46875;SDS011;32866;50.160;14.768;2023-02-26T16:57:31;5.23;;;3.00;;
46875;SDS011;32866;50.160;14.768;2023-02-26T17:00:02;6.77;;;2.70;;
46875;SDS011;32866;50.160;14.768;2023-02-26T17:02:33;4.77;;;2.07;;
46875;SDS011;32866;50.160;14.768;2023-02-26T17:05:02;5.53;;;2.73;;
46875;SDS011;32866;50.160;14.768;2023-02-26T17:07:48;7.73;;;3.87;;
46875;SDS011;32866;50.160;14.768;2023-02-26T17:10:22;11.73;;;4.00;;
46875;SDS011;32866;50.160;14.768;2023-02-26T17:13:09;8.15;;;3.95;;
46875;SDS011;32866;50.160;14.768;2023-02-26T17:16:03;7.97;;;3.47;;
46875;SDS011;32866;50.160;14.768;2023-02-26T17:18:31;8.50;;;3.93;;
46875;SDS011;32866;50.160;14.768;2023-02-26T17:20:57;7.93;;;3.72;;
46875;SDS011;32866;50.160;14.768;2023-02-26T17:23:28;11.47;;;4.43;;
46875;SDS011;32866;50.160;14.768;2023-02-26T17:25:55;9.43;;;4.80;;
46875;SDS011;32866;50.160;14.768;2023-02-26T17:28:26;10.77;;;4.30;;
46875;SDS011;32866;50.160;14.768;2023-02-26T17:30:55;12.00;;;4.83;;
46875;SDS011;32866;50.160;14.768;2023-02-26T17:33:20;6.72;;;3.67;;
46875;SDS011;32866;50.160;14.768;2023-02-26T17:35:46;15.30;;;4.90;;
46875;SDS011;32866;50.160;14.768;2023-02-26T17:38:13;19.73;;;6.33;;